createdAt,value
2024-01-11T22:40:28.434Z,1018.63
2024-01-11T22:41:28.130Z,1018.61
2024-01-11T22:42:27.393Z,1018.62
2024-01-11T22:43:27.997Z,1018.64
2024-01-11T22:44:27.628Z,1018.61
2024-01-11T22:45:27.279Z,1018.57
2024-01-11T22:46:27.541Z,1018.54
2024-01-11T22:54:28.081Z,1018.55
2024-01-11T22:55:27.149Z,1018.53
2024-01-11T22:56:27.298Z,1018.54
2024-01-11T22:57:27.425Z,1018.53
2024-01-11T22:58:28.257Z,1018.54
2024-01-11T22:59:29.074Z,1018.57
2024-01-11T23:00:27.430Z,1018.62
2024-01-11T23:01:27.726Z,1018.59
2024-01-11T23:02:28.019Z,1018.61
2024-01-11T23:03:27.311Z,1018.61
2024-01-11T23:04:27.729Z,1018.68
2024-01-11T23:14:28.812Z,1018.49
2024-01-11T23:15:28.490Z,1018.48
2024-01-11T23:16:27.725Z,1018.49
2024-01-11T23:18:28.004Z,1018.49
2024-01-11T23:19:27.290Z,1018.49
2024-01-11T23:20:28.031Z,1018.49
2024-01-11T23:21:27.383Z,1018.50
2024-01-11T23:22:27.473Z,1018.48
2024-01-11T23:23:27.704Z,1018.44
2024-01-11T23:24:27.903Z,1018.45
2024-01-11T23:25:27.122Z,1018.45
2024-01-11T23:26:27.581Z,1018.43
2024-01-11T23:27:27.922Z,1018.44
2024-01-11T23:28:26.973Z,1018.48
2024-01-11T23:29:27.561Z,1018.44
2024-01-11T23:30:27.672Z,1018.45
2024-01-11T23:31:27.887Z,1018.42
2024-01-11T23:32:28.057Z,1018.37
2024-01-11T23:33:27.894Z,1018.34
2024-01-11T23:34:27.229Z,1018.31
2024-01-11T23:35:27.763Z,1018.35
2024-01-11T23:36:27.547Z,1018.33
2024-01-11T23:37:28.375Z,1018.33
2024-01-11T23:38:28.124Z,1018.35
2024-01-11T23:39:27.855Z,1018.37
2024-01-11T23:40:27.812Z,1018.33
2024-01-11T23:47:28.764Z,1018.27
2024-01-11T23:48:28.075Z,1018.25
2024-01-11T23:49:43.649Z,1018.22
2024-01-11T23:50:27.658Z,1018.25
2024-01-11T23:51:27.706Z,1018.25
2024-01-11T23:52:28.170Z,1018.22
2024-01-11T23:53:27.946Z,1018.25
2024-01-11T23:54:27.569Z,1018.30
2024-01-11T23:55:28.040Z,1018.33
2024-01-11T23:56:27.242Z,1018.33
2024-01-11T23:57:27.376Z,1018.29
2024-01-11T23:58:27.906Z,1018.29
2024-01-11T23:59:27.484Z,1018.29
